Time;durP1;ratioP1;P1;durP2;ratioP2;P2;SDS_P1;SDS_P2;PMS_P1;PMS_P2;Temp;Humidity;BMP_temperature;BMP_pressure;BME280_temperature;BME280_humidity;BME280_pressure;Samples;Min_cycle;Max_cycle;Signal;HPM_P1;HPM_P2
2021/09/07 00:03:30;;;;;;;8.23;7.47;;;18.50;31.10;;;;;;10561893;28;20230;-72
2021/09/07 00:08:33;;;;;;;7.90;7.07;;;18.50;31.50;;;;;;10554224;28;20246;-72
2021/09/07 00:13:37;;;;;;;7.40;6.80;;;18.40;31.10;;;;;;10556622;28;20276;-71
2021/09/07 00:18:41;;;;;;;9.20;8.33;;;18.40;31.20;;;;;;10560409;28;20223;-72
2021/09/07 00:23:45;;;;;;;7.50;6.90;;;18.30;31.70;;;;;;10559260;28;20251;-72
2021/09/07 00:28:48;;;;;;;8.67;7.87;;;18.30;31.30;;;;;;10551074;28;20227;-78
2021/09/07 00:33:52;;;;;;;8.13;7.43;;;18.20;31.50;;;;;;10559806;28;21028;-74
2021/09/07 00:38:56;;;;;;;9.10;8.23;;;18.20;31.90;;;;;;10556544;28;20222;-72
2021/09/07 00:43:59;;;;;;;8.60;7.80;;;18.10;31.60;;;;;;10549494;28;20223;-78
2021/09/07 00:49:04;;;;;;;7.50;6.80;;;18.00;31.60;;;;;;10561143;28;20222;-78
2021/09/07 00:54:07;;;;;;;7.53;6.93;;;18.00;32.10;;;;;;10560393;28;20583;-78
2021/09/07 00:59:12;;;;;;;8.93;8.13;;;18.00;31.70;;;;;;10560553;28;20234;-79
2021/09/07 01:04:18;;;;;;;7.43;6.73;;;17.90;32.30;;;;;;10563753;28;20235;-79
2021/09/07 01:09:21;;;;;;;7.60;6.83;;;17.90;32.30;;;;;;10554431;28;20228;-79
2021/09/07 01:14:30;;;;;;;7.90;7.30;;;17.90;31.90;;;;;;10555884;28;20233;-78
2021/09/07 01:19:34;;;;;;;7.77;6.97;;;17.80;32.80;;;;;;10561350;28;20855;-79
2021/09/07 01:24:39;;;;;;;8.33;7.63;;;17.80;32.30;;;;;;10558032;28;20256;-78
2021/09/07 01:29:43;;;;;;;7.13;6.53;;;17.80;32.60;;;;;;10555211;28;20227;-78
2021/09/07 01:34:46;;;;;;;8.77;8.03;;;17.70;32.40;;;;;;10562639;28;20233;-79
2021/09/07 01:39:51;;;;;;;8.17;7.43;;;17.70;32.30;;;;;;10559239;28;20215;-79
2021/09/07 01:44:54;;;;;;;8.03;7.33;;;17.70;32.50;;;;;;10559517;28;20251;-79
2021/09/07 01:49:58;;;;;;;7.97;7.17;;;17.60;32.50;;;;;;10559656;28;20227;-79
2021/09/07 01:55:02;;;;;;;8.20;7.40;;;17.60;32.60;;;;;;10561240;28;20223;-79
2021/09/07 02:00:07;;;;;;;8.60;7.80;;;17.50;33.00;;;;;;10557012;28;20215;-79
2021/09/07 02:05:11;;;;;;;9.80;7.50;;;17.50;32.90;;;;;;10527047;28;20230;-78
2021/09/07 02:10:16;;;;;;;8.30;7.60;;;17.40;32.90;;;;;;10515864;28;20228;-79
2021/09/07 02:15:19;;;;;;;8.67;7.90;;;17.40;32.90;;;;;;10520514;28;20223;-79
2021/09/07 02:20:22;;;;;;;7.80;7.10;;;17.30;32.60;;;;;;10529278;28;20643;-78
2021/09/07 02:25:27;;;;;;;9.30;8.50;;;17.10;32.60;;;;;;10516928;28;20219;-78
2021/09/07 02:30:31;;;;;;;8.23;7.53;;;16.90;33.40;;;;;;10524676;28;20226;-78
2021/09/07 02:35:34;;;;;;;7.90;7.13;;;16.80;33.30;;;;;;10525253;28;20223;-78
2021/09/07 02:40:39;;;;;;;7.90;7.20;;;16.70;33.60;;;;;;10524261;28;20228;-78
2021/09/07 02:45:42;;;;;;;8.30;6.50;;;16.70;33.60;;;;;;10522974;28;20593;-78
2021/09/07 02:50:45;;;;;;;7.80;7.10;;;16.70;33.60;;;;;;10525439;28;21079;-78
2021/09/07 02:55:50;;;;;;;8.23;7.53;;;16.70;33.60;;;;;;10528202;28;20224;-78
2021/09/07 03:00:53;;;;;;;8.73;7.93;;;16.70;33.60;;;;;;10534964;28;20223;-78
2021/09/07 03:05:58;;;;;;;6.90;6.30;;;16.70;33.60;;;;;;10564782;28;20223;-78
2021/09/07 03:11:02;;;;;;;7.97;7.27;;;16.70;33.60;;;;;;10565023;28;20707;-78
2021/09/07 03:16:06;;;;;;;7.17;6.53;;;16.60;33.50;;;;;;10563370;28;20234;-78
2021/09/07 03:21:09;;;;;;;8.87;8.03;;;16.70;33.60;;;;;;10563862;28;20252;-78
2021/09/07 03:26:14;;;;;;;8.90;8.07;;;16.60;33.60;;;;;;10568778;28;20230;-78
2021/09/07 03:31:17;;;;;;;8.00;7.30;;;16.50;33.40;;;;;;10559208;28;20229;-78
2021/09/07 03:36:20;;;;;;;8.77;7.80;;;16.40;33.30;;;;;;10566337;28;20252;-78
2021/09/07 03:41:25;;;;;;;6.67;6.07;;;16.30;33.30;;;;;;10564145;28;20230;-78
2021/09/07 03:46:28;;;;;;;7.77;7.07;;;16.20;33.60;;;;;;10562908;28;20241;-78
2021/09/07 03:51:31;;;;;;;7.33;6.63;;;16.10;33.70;;;;;;10565649;28;20313;-78
2021/09/07 03:56:36;;;;;;;7.50;6.80;;;16.10;33.70;;;;;;10562487;28;20618;-77
2021/09/07 04:01:40;;;;;;;7.30;6.63;;;16.00;34.10;;;;;;10560803;28;20223;-78
2021/09/07 04:06:43;;;;;;;7.47;6.87;;;16.00;33.80;;;;;;10564141;28;20220;-78
2021/09/07 04:11:48;;;;;;;8.60;7.70;;;16.00;33.90;;;;;;10563009;28;20309;-78
2021/09/07 04:16:52;;;;;;;7.27;6.67;;;16.00;34.50;;;;;;10555460;28;20210;-78
2021/09/07 04:21:55;;;;;;;7.20;6.60;;;16.00;34.30;;;;;;10560175;28;20596;-78
2021/09/07 04:27:00;;;;;;;8.20;6.93;;;16.00;34.00;;;;;;10559978;28;20229;-78
2021/09/07 04:32:04;;;;;;;6.43;5.83;;;16.00;34.50;;;;;;10556551;28;20231;-77
2021/09/07 04:37:07;;;;;;;8.27;7.37;;;16.00;34.10;;;;;;10563104;28;20868;-78
2021/09/07 04:42:11;;;;;;;7.53;6.47;;;16.00;34.20;;;;;;10555717;28;20222;-79
2021/09/07 04:47:15;;;;;;;8.90;7.60;;;15.90;34.50;;;;;;10563514;28;20227;-78
2021/09/07 04:52:18;;;;;;;7.60;6.87;;;15.90;34.40;;;;;;10566559;28;20215;-78
2021/09/07 04:57:23;;;;;;;6.93;6.10;;;15.90;34.50;;;;;;10553630;28;20235;-78
2021/09/07 05:02:26;;;;;;;8.03;7.33;;;15.90;34.90;;;;;;10558980;28;20310;-79
2021/09/07 05:07:29;;;;;;;8.10;7.30;;;16.00;34.80;;;;;;10561242;28;20226;-79
2021/09/07 05:12:34;;;;;;;9.87;8.97;;;16.00;34.70;;;;;;10560708;28;20922;-78
2021/09/07 05:17:37;;;;;;;8.93;8.10;;;15.90;35.10;;;;;;10558823;28;20237;-79
2021/09/07 05:22:40;;;;;;;8.67;7.87;;;15.90;34.90;;;;;;10560900;28;20230;-78
2021/09/07 05:27:45;;;;;;;8.17;6.80;;;15.80;35.00;;;;;;10564319;28;20603;-78
2021/09/07 05:32:48;;;;;;;8.77;7.97;;;15.80;35.70;;;;;;10562050;28;20225;-78
2021/09/07 05:37:52;;;;;;;8.57;7.83;;;15.80;35.70;;;;;;10568596;27;20598;-78
2021/09/07 05:42:57;;;;;;;8.30;7.10;;;15.80;36.10;;;;;;10569760;28;20594;-79
2021/09/07 05:48:00;;;;;;;9.07;8.13;;;15.80;36.60;;;;;;10568441;28;20215;-77
2021/09/07 05:53:03;;;;;;;9.33;8.30;;;15.80;36.10;;;;;;10568026;28;20306;-78
2021/09/07 05:58:08;;;;;;;8.73;7.83;;;15.90;36.40;;;;;;10566441;28;21028;-76
2021/09/07 06:03:11;;;;;;;9.50;7.93;;;15.90;37.10;;;;;;10566192;28;20319;-75
2021/09/07 06:08:15;;;;;;;9.90;8.20;;;15.90;36.50;;;;;;10566960;27;20268;-78
2021/09/07 06:13:21;;;;;;;9.67;8.67;;;16.00;36.90;;;;;;10570512;27;20219;-78
2021/09/07 06:18:24;;;;;;;9.40;8.43;;;16.00;37.40;;;;;;10567389;28;20226;-73
2021/09/07 06:23:28;;;;;;;9.10;8.20;;;16.10;37.20;;;;;;10565895;27;20219;-73
2021/09/07 06:28:32;;;;;;;9.30;8.50;;;16.20;37.20;;;;;;10562583;28;20591;-73
2021/09/07 06:33:36;;;;;;;9.93;9.00;;;16.30;38.00;;;;;;10563326;28;20359;-73
2021/09/07 06:38:39;;;;;;;9.20;8.30;;;16.40;37.40;;;;;;10561535;28;20592;-72
2021/09/07 06:43:43;;;;;;;9.37;8.47;;;16.50;38.20;;;;;;10562910;28;20223;-73
2021/09/07 06:48:47;;;;;;;9.90;8.90;;;16.60;38.20;;;;;;10563737;27;20820;-76
2021/09/07 06:53:50;;;;;;;10.13;9.13;;;16.70;37.90;;;;;;10566412;27;20573;-79
2021/09/07 06:58:55;;;;;;;9.67;8.80;;;16.90;38.00;;;;;;10559528;27;20223;-80
2021/09/07 07:03:58;;;;;;;9.90;9.00;;;17.00;38.70;;;;;;10567749;28;20231;-79
2021/09/07 07:09:01;;;;;;;11.70;9.40;;;17.20;38.40;;;;;;10567083;28;20728;-79
2021/09/07 07:14:06;;;;;;;12.60;10.50;;;17.40;38.40;;;;;;10561919;28;20257;-73
2021/09/07 07:19:09;;;;;;;13.87;11.93;;;17.60;39.00;;;;;;10561790;28;20754;-72
2021/09/07 07:24:14;;;;;;;10.77;9.70;;;17.70;38.20;;;;;;10562248;28;20699;-73
2021/09/07 07:29:35;;;;;;;12.33;11.03;;;17.90;38.20;;;;;;10561755;28;20219;-73
2021/09/07 07:34:38;;;;;;;13.20;11.47;;;18.00;38.80;;;;;;10559330;27;20223;-72
2021/09/07 07:39:41;;;;;;;12.87;11.53;;;18.20;38.30;;;;;;10562238;28;20572;-72
2021/09/07 07:44:47;;;;;;;13.10;11.63;;;18.30;38.30;;;;;;10559655;28;20227;-72
2021/09/07 07:49:50;;;;;;;13.50;12.07;;;18.50;38.90;;;;;;10561049;27;20218;-75
2021/09/07 07:54:54;;;;;;;12.77;11.57;;;18.70;38.80;;;;;;10564212;28;20230;-73
2021/09/07 07:59:58;;;;;;;13.37;11.63;;;18.90;38.80;;;;;;10558647;28;20219;-72
2021/09/07 08:05:01;;;;;;;13.07;11.83;;;19.10;39.30;;;;;;10562998;28;20913;-72
2021/09/07 08:10:06;;;;;;;16.50;12.67;;;19.30;38.90;;;;;;10554616;28;20215;-72
2021/09/07 08:15:12;;;;;;;15.23;13.73;;;19.60;39.00;;;;;;10560288;28;20231;-72
2021/09/07 08:20:15;;;;;;;13.17;11.80;;;19.80;38.80;;;;;;10560705;28;20275;-73
2021/09/07 08:25:19;;;;;;;13.80;12.53;;;20.00;38.70;;;;;;10561339;27;20602;-72
2021/09/07 08:30:24;;;;;;;13.70;12.50;;;20.30;38.70;;;;;;10562315;27;20329;-79
2021/09/07 08:35:27;;;;;;;13.87;12.47;;;20.60;38.10;;;;;;10563583;27;20310;-79
2021/09/07 08:40:30;;;;;;;13.07;11.77;;;20.90;38.00;;;;;;10560619;28;20219;-79
2021/09/07 08:45:38;;;;;;;13.47;12.17;;;21.20;37.60;;;;;;10563203;28;20233;-79
2021/09/07 08:50:41;;;;;;;12.80;11.53;;;21.40;37.70;;;;;;10557417;28;20246;-79
2021/09/07 08:55:44;;;;;;;11.63;10.53;;;21.60;36.90;;;;;;10560666;28;20230;-79
2021/09/07 09:00:50;;;;;;;13.57;11.67;;;21.80;36.90;;;;;;10570226;28;20251;-79
2021/09/07 09:05:53;;;;;;;11.90;10.67;;;22.10;37.00;;;;;;10563507;28;20842;-78
2021/09/07 09:11:05;;;;;;;12.10;10.93;;;22.30;36.90;;;;;;10567123;28;20237;-78
2021/09/07 09:16:10;;;;;;;11.20;10.20;;;22.60;36.70;;;;;;10575358;27;20223;-78
2021/09/07 09:21:24;;;;;;;12.37;11.20;;;22.80;36.80;;;;;;10559131;28;20242;-78
2021/09/07 09:26:27;;;;;;;11.90;10.87;;;23.20;36.90;;;;;;10556122;27;20218;-79
2021/09/07 09:31:50;;;;;;;11.47;10.30;;;23.50;36.70;;;;;;10558450;28;20591;-79
2021/09/07 09:36:59;;;;;;;12.13;10.90;;;23.80;36.40;;;;;;10568654;28;20254;-78
2021/09/07 09:42:02;;;;;;;11.27;10.17;;;24.00;35.30;;;;;;10567560;28;20214;-77
2021/09/07 09:47:07;;;;;;;12.07;10.87;;;24.20;35.50;;;;;;10569781;28;20223;-79
2021/09/07 09:52:10;;;;;;;11.47;10.47;;;24.40;34.90;;;;;;10567311;28;20222;-78
2021/09/07 09:57:14;;;;;;;11.53;10.53;;;24.60;34.90;;;;;;10571581;28;20262;-78
2021/09/07 10:02:19;;;;;;;11.60;10.50;;;24.80;34.70;;;;;;10569625;28;20226;-79
2021/09/07 10:07:22;;;;;;;13.37;12.20;;;24.90;34.30;;;;;;10565208;28;20265;-78
2021/09/07 10:12:30;;;;;;;11.87;10.60;;;25.10;34.40;;;;;;10565801;27;20227;-78
2021/09/07 10:17:40;;;;;;;11.43;10.10;;;25.20;34.00;;;;;;10559509;27;20968;-78
2021/09/07 10:28:37;;;;;;;11.43;10.43;;;25.50;33.20;;;;;;10551103;28;20226;-79
2021/09/07 10:33:43;;;;;;;11.67;10.50;;;25.60;32.90;;;;;;10558591;27;20226;-72
2021/09/07 10:38:49;;;;;;;10.50;9.60;;;25.70;32.90;;;;;;10552947;28;20602;-72
2021/09/07 10:43:54;;;;;;;12.27;11.07;;;25.80;33.30;;;;;;10564788;28;20276;-72
2021/09/07 10:49:22;;;;;;;11.30;10.40;;;25.90;33.00;;;;;;10561780;28;20997;-72
2021/09/07 10:54:26;;;;;;;10.63;9.70;;;26.10;32.80;;;;;;10559954;28;20219;-72
2021/09/07 10:59:50;;;;;;;11.40;10.30;;;26.20;32.80;;;;;;10561615;28;20656;-72
2021/09/07 11:04:55;;;;;;;10.90;10.00;;;26.30;31.50;;;;;;10563802;28;20217;-72
2021/09/07 11:09:59;;;;;;;10.27;9.37;;;26.50;32.00;;;;;;10565002;27;20215;-72
2021/09/07 11:15:08;;;;;;;10.53;9.70;;;26.50;32.00;;;;;;10558257;27;20218;-74
2021/09/07 11:20:13;;;;;;;9.90;9.07;;;26.60;30.80;;;;;;10560536;27;20314;-72
2021/09/07 11:25:19;;;;;;;10.13;8.80;;;26.70;30.60;;;;;;10558741;28;20306;-72
2021/09/07 11:30:30;;;;;;;8.90;8.20;;;26.80;30.40;;;;;;10554601;27;21040;-72
2021/09/07 11:35:38;;;;;;;9.40;8.50;;;26.90;30.40;;;;;;10554943;28;20227;-72
2021/09/07 11:40:44;;;;;;;8.83;7.97;;;27.00;29.70;;;;;;10556045;28;20263;-73
2021/09/07 11:45:48;;;;;;;9.00;8.30;;;27.10;29.80;;;;;;10542357;27;20222;-73
2021/09/07 11:50:52;;;;;;;9.07;8.27;;;27.20;29.80;;;;;;10561418;28;20231;-73
2021/09/07 11:55:57;;;;;;;9.50;8.70;;;27.30;29.60;;;;;;10559192;28;20234;-73
2021/09/07 12:01:12;;;;;;;9.33;8.57;;;27.50;29.90;;;;;;10560057;28;20227;-73
2021/09/07 12:06:19;;;;;;;10.03;9.13;;;27.60;29.10;;;;;;10561152;27;20222;-72
2021/09/07 12:11:31;;;;;;;9.90;8.90;;;27.60;28.70;;;;;;10560662;27;20234;-73
2021/09/07 12:16:36;;;;;;;10.17;9.23;;;27.70;28.80;;;;;;10561936;27;20230;-72
2021/09/07 12:21:41;;;;;;;9.37;8.57;;;27.70;28.90;;;;;;10551644;28;20269;-72
2021/09/07 12:26:48;;;;;;;9.83;9.03;;;27.70;28.30;;;;;;10560055;27;20318;-77
2021/09/07 12:32:03;;;;;;;9.17;8.43;;;27.80;28.70;;;;;;10560020;27;20223;-77
2021/09/07 12:37:08;;;;;;;9.30;8.50;;;27.80;28.10;;;;;;10555814;27;20234;-74
2021/09/07 12:42:11;;;;;;;8.60;7.90;;;27.90;27.80;;;;;;10558562;28;20233;-77
2021/09/07 12:47:14;;;;;;;10.20;9.00;;;27.90;28.00;;;;;;10560925;27;20219;-79
2021/09/07 12:52:19;;;;;;;9.97;9.07;;;27.90;27.90;;;;;;10563367;27;20249;-73
2021/09/07 12:57:22;;;;;;;9.83;9.03;;;27.90;27.30;;;;;;10562781;28;20641;-74
2021/09/07 13:02:25;;;;;;;9.70;8.80;;;27.90;27.60;;;;;;10555820;28;20707;-74
2021/09/07 13:07:30;;;;;;;8.57;7.87;;;27.90;27.60;;;;;;10560229;28;20227;-74
2021/09/07 13:12:34;;;;;;;8.90;8.10;;;28.00;26.60;;;;;;10559266;28;20337;-73
2021/09/07 13:17:37;;;;;;;9.40;8.23;;;28.00;27.00;;;;;;10558258;28;20222;-72
2021/09/07 13:22:42;;;;;;;9.47;8.67;;;27.90;26.90;;;;;;10559397;28;20227;-73
2021/09/07 13:27:46;;;;;;;9.23;8.33;;;28.00;26.80;;;;;;10557350;28;20603;-72
2021/09/07 13:32:50;;;;;;;8.80;8.10;;;28.10;27.10;;;;;;10547093;28;20231;-74
2021/09/07 13:37:54;;;;;;;8.67;7.97;;;28.10;26.90;;;;;;10557773;28;20707;-72
2021/09/07 13:42:58;;;;;;;8.90;8.20;;;28.10;26.20;;;;;;10554601;28;20218;-72
2021/09/07 13:48:01;;;;;;;8.53;7.83;;;28.20;26.60;;;;;;10556753;28;20215;-72
2021/09/07 13:53:07;;;;;;;8.67;7.97;;;28.20;26.70;;;;;;10562942;28;20218;-72
2021/09/07 13:58:10;;;;;;;9.23;8.43;;;28.20;26.00;;;;;;10567966;28;20231;-72
2021/09/07 14:03:14;;;;;;;8.80;7.90;;;28.20;26.20;;;;;;10564952;28;20230;-72
2021/09/07 14:08:18;;;;;;;7.50;6.90;;;28.20;26.30;;;;;;10563543;28;20219;-71
2021/09/07 14:13:23;;;;;;;9.00;8.20;;;28.20;25.60;;;;;;10562793;28;20231;-72
2021/09/07 14:18:29;;;;;;;8.10;7.40;;;28.10;25.80;;;;;;10567483;28;20321;-71
2021/09/07 14:23:33;;;;;;;8.27;7.57;;;28.20;26.00;;;;;;10566622;28;21136;-71
2021/09/07 14:28:36;;;;;;;8.23;7.53;;;28.20;25.60;;;;;;10566291;28;20214;-71
2021/09/07 14:33:39;;;;;;;8.47;7.70;;;28.30;25.90;;;;;;10565265;28;20222;-72
2021/09/07 14:38:44;;;;;;;9.13;8.37;;;28.30;25.70;;;;;;10564058;28;20223;-71
2021/09/07 14:43:47;;;;;;;8.87;8.10;;;28.30;25.30;;;;;;10564928;28;20230;-71
2021/09/07 14:48:50;;;;;;;9.60;8.70;;;28.30;25.40;;;;;;10564933;28;20233;-72
2021/09/07 14:53:55;;;;;;;8.17;7.53;;;28.30;25.60;;;;;;10562616;28;20714;-72
2021/09/07 14:58:58;;;;;;;8.80;8.00;;;28.30;25.30;;;;;;10562722;28;20227;-71
2021/09/07 15:04:01;;;;;;;9.87;8.20;;;28.30;25.60;;;;;;10564502;28;20352;-72
2021/09/07 15:09:06;;;;;;;7.77;7.13;;;28.30;25.30;;;;;;10566632;28;20962;-71
2021/09/07 15:14:09;;;;;;;8.87;8.07;;;28.20;25.00;;;;;;10563472;28;20234;-72
2021/09/07 15:19:12;;;;;;;7.97;7.27;;;28.20;25.40;;;;;;10563368;28;20219;-72
2021/09/07 15:24:17;;;;;;;9.00;8.20;;;28.20;25.50;;;;;;10564390;28;20223;-72
2021/09/07 15:29:21;;;;;;;8.20;7.60;;;28.20;25.20;;;;;;10562002;28;20229;-71
2021/09/07 15:34:24;;;;;;;7.80;7.17;;;28.20;25.50;;;;;;10563048;28;20691;-72
2021/09/07 15:39:29;;;;;;;8.40;7.60;;;28.20;25.00;;;;;;10559607;27;20227;-72
2021/09/07 15:44:32;;;;;;;8.37;7.67;;;28.20;24.90;;;;;;10560615;28;20246;-79
2021/09/07 15:49:35;;;;;;;7.80;7.17;;;28.20;24.90;;;;;;10563751;27;20223;-79
2021/09/07 15:54:40;;;;;;;7.87;7.20;;;28.20;25.00;;;;;;10560578;28;20648;-72
2021/09/07 15:59:43;;;;;;;8.43;7.73;;;28.20;24.90;;;;;;10562091;27;20231;-72
2021/09/07 16:04:47;;;;;;;8.20;7.40;;;28.20;25.00;;;;;;10561372;28;20232;-72
2021/09/07 16:09:51;;;;;;;7.67;6.97;;;28.20;25.00;;;;;;10562417;28;20310;-72
2021/09/07 16:14:54;;;;;;;7.30;6.70;;;28.20;24.30;;;;;;10561833;27;20233;-72
2021/09/07 16:19:58;;;;;;;7.27;6.67;;;28.20;24.70;;;;;;10560603;27;20219;-78
2021/09/07 16:25:03;;;;;;;7.50;6.90;;;28.10;24.60;;;;;;10561169;28;20210;-79
2021/09/07 16:30:08;;;;;;;7.37;6.77;;;28.20;24.20;;;;;;10561539;22;20287;-78
2021/09/07 16:35:12;;;;;;;8.33;6.83;;;28.10;24.50;;;;;;10472738;28;20221;-78
2021/09/07 16:40:16;;;;;;;8.67;7.90;;;28.10;25.70;;;;;;10473988;28;20228;-78
2021/09/07 16:45:20;;;;;;;9.40;8.43;;;28.10;26.00;;;;;;10478855;28;20309;-78
2021/09/07 16:50:23;;;;;;;9.33;8.60;;;28.00;25.80;;;;;;10473182;28;20227;-74
2021/09/07 16:55:31;;;;;;;9.67;8.77;;;27.90;26.10;;;;;;10467208;28;20228;-72
2021/09/07 17:00:34;;;;;;;9.37;8.57;;;27.80;26.40;;;;;;10474399;28;20288;-72
2021/09/07 17:05:38;;;;;;;8.87;8.17;;;27.70;26.40;;;;;;10472448;28;20545;-72
2021/09/07 17:10:44;;;;;;;8.87;8.00;;;27.60;26.50;;;;;;10471176;28;20230;-72
2021/09/07 17:15:47;;;;;;;9.80;8.80;;;27.50;26.60;;;;;;10474742;28;20228;-72
2021/09/07 17:20:51;;;;;;;8.83;8.03;;;27.40;26.40;;;;;;10470600;28;20231;-72
2021/09/07 17:25:59;;;;;;;10.03;7.40;;;27.20;26.70;;;;;;10471499;28;20224;-72
2021/09/07 17:31:05;;;;;;;9.33;8.43;;;27.10;27.20;;;;;;10480000;28;20254;-73
2021/09/07 17:36:14;;;;;;;8.40;7.60;;;26.90;27.20;;;;;;10468494;28;20307;-72
2021/09/07 17:41:37;;;;;;;9.07;8.27;;;26.80;27.30;;;;;;10484405;28;20768;-79
2021/09/07 17:46:40;;;;;;;8.17;7.57;;;26.60;27.70;;;;;;10482516;28;21257;-79
2021/09/07 17:51:45;;;;;;;8.57;7.87;;;26.40;27.80;;;;;;10478910;28;20220;-79
2021/09/07 17:56:50;;;;;;;7.80;7.20;;;26.30;27.90;;;;;;10477537;28;20783;-79
2021/09/07 18:01:53;;;;;;;8.10;7.40;;;26.20;28.30;;;;;;10479826;28;20258;-72
2021/09/07 18:06:57;;;;;;;8.23;7.43;;;26.00;28.20;;;;;;10481398;28;20501;-78
2021/09/07 18:12:02;;;;;;;8.90;8.20;;;25.90;28.30;;;;;;10483069;28;20289;-72
2021/09/07 18:17:05;;;;;;;8.03;7.37;;;25.80;29.10;;;;;;10477318;28;20235;-72
2021/09/07 18:22:10;;;;;;;8.77;8.00;;;25.70;28.80;;;;;;10477087;28;20381;-71
2021/09/07 18:27:23;;;;;;;7.73;7.13;;;25.50;29.00;;;;;;10476707;28;20719;-73
2021/09/07 18:32:27;;;;;;;8.07;7.37;;;25.40;28.90;;;;;;10476426;28;20323;-73
2021/09/07 18:37:31;;;;;;;8.97;8.17;;;25.20;28.80;;;;;;10443197;28;20652;-72
2021/09/07 18:42:39;;;;;;;8.43;7.67;;;25.10;28.70;;;;;;10469204;28;20285;-72
2021/09/07 18:47:42;;;;;;;8.23;7.53;;;24.90;28.80;;;;;;10472695;28;20782;-73
2021/09/07 18:52:46;;;;;;;8.20;7.50;;;24.80;28.60;;;;;;10477173;28;20228;-73
2021/09/07 18:57:55;;;;;;;8.40;7.60;;;24.70;28.90;;;;;;10472601;28;20220;-73
2021/09/07 19:02:58;;;;;;;9.00;8.20;;;24.60;29.60;;;;;;10473512;28;20232;-73
2021/09/07 19:08:02;;;;;;;10.60;9.70;;;24.50;29.00;;;;;;10476211;28;20270;-75
2021/09/07 19:13:06;;;;;;;10.40;9.50;;;24.40;29.10;;;;;;10478269;28;20232;-74
2021/09/07 19:18:10;;;;;;;9.90;8.90;;;24.30;29.40;;;;;;10477327;28;20224;-79
2021/09/07 19:23:14;;;;;;;10.13;9.23;;;24.10;29.20;;;;;;10464647;28;20220;-79
2021/09/07 19:28:19;;;;;;;11.20;10.20;;;24.00;29.30;;;;;;10469192;28;20220;-79
2021/09/07 19:33:23;;;;;;;10.23;9.33;;;23.90;29.70;;;;;;10474382;28;20617;-79
2021/09/07 19:38:26;;;;;;;11.17;10.07;;;23.70;29.40;;;;;;10481877;28;20232;-78
2021/09/07 19:43:31;;;;;;;10.77;9.77;;;23.50;29.50;;;;;;10471871;28;20228;-79
2021/09/07 19:48:34;;;;;;;11.10;10.00;;;23.40;29.80;;;;;;10477394;28;20232;-79
2021/09/07 19:53:37;;;;;;;10.40;9.50;;;23.20;29.70;;;;;;10466600;28;20232;-74
2021/09/07 19:58:42;;;;;;;10.97;9.90;;;23.00;29.80;;;;;;10473027;28;20235;-79
2021/09/07 20:03:45;;;;;;;10.40;9.40;;;22.70;30.30;;;;;;10480867;28;20327;-77
2021/09/07 20:08:49;;;;;;;10.60;9.60;;;22.60;30.30;;;;;;10471354;28;20700;-77
2021/09/07 20:13:53;;;;;;;10.83;9.90;;;22.50;30.30;;;;;;10480505;28;20256;-79
2021/09/07 20:18:57;;;;;;;10.70;9.70;;;22.40;30.80;;;;;;10473531;28;20590;-79
2021/09/07 20:24:00;;;;;;;10.97;10.07;;;22.20;30.70;;;;;;10477561;28;20234;-78
2021/09/07 20:29:04;;;;;;;10.10;9.30;;;22.10;30.90;;;;;;10466463;28;20239;-78
2021/09/07 20:34:08;;;;;;;10.20;9.30;;;21.90;31.30;;;;;;10465800;28;20228;-73
2021/09/07 20:39:12;;;;;;;9.73;8.83;;;21.80;31.10;;;;;;10465711;28;20231;-72
2021/09/07 20:44:16;;;;;;;10.47;9.53;;;21.70;31.20;;;;;;10463837;28;20224;-72
2021/09/07 20:49:22;;;;;;;10.93;9.93;;;21.70;31.90;;;;;;10462631;28;20256;-72
2021/09/07 20:54:25;;;;;;;11.03;10.03;;;21.70;31.60;;;;;;10463196;28;20239;-72
2021/09/07 20:59:30;;;;;;;10.27;9.27;;;21.70;31.60;;;;;;10467399;28;20306;-72
2021/09/07 21:04:33;;;;;;;11.00;9.90;;;21.60;32.00;;;;;;10466451;28;20228;-80
2021/09/07 21:09:36;;;;;;;10.97;9.97;;;21.60;31.70;;;;;;10466376;28;20224;-72
2021/09/07 21:14:41;;;;;;;11.30;10.20;;;21.50;31.50;;;;;;10462179;28;20224;-72
2021/09/07 21:19:45;;;;;;;12.37;11.17;;;21.50;31.70;;;;;;10463923;28;20286;-72
2021/09/07 21:24:48;;;;;;;11.00;10.00;;;21.30;31.80;;;;;;10465437;28;20216;-72
2021/09/07 21:29:53;;;;;;;10.57;9.63;;;21.20;31.90;;;;;;10461611;28;20228;-72
2021/09/07 21:34:56;;;;;;;10.80;9.80;;;21.10;32.30;;;;;;10469560;28;20227;-72
2021/09/07 21:39:59;;;;;;;11.43;10.33;;;21.00;32.00;;;;;;10466707;28;20224;-72
2021/09/07 21:45:04;;;;;;;11.03;10.03;;;21.00;32.10;;;;;;10466463;28;20224;-72
2021/09/07 21:50:08;;;;;;;12.13;10.93;;;20.90;32.60;;;;;;10465264;28;20220;-72
2021/09/07 21:55:13;;;;;;;10.17;9.27;;;20.80;32.20;;;;;;10467283;28;20227;-72
2021/09/07 22:00:19;;;;;;;10.43;9.43;;;20.70;32.00;;;;;;10472988;28;20255;-72
2021/09/07 22:05:22;;;;;;;10.53;9.60;;;20.50;32.70;;;;;;10474582;28;20232;-72
2021/09/07 22:10:26;;;;;;;9.87;9.03;;;20.40;32.50;;;;;;10472533;28;20236;-72
2021/09/07 22:15:30;;;;;;;9.60;8.60;;;20.30;32.60;;;;;;10479991;28;20235;-72
2021/09/07 22:20:34;;;;;;;11.10;10.07;;;20.20;33.20;;;;;;10478557;28;20247;-71
2021/09/07 22:25:37;;;;;;;11.60;10.60;;;20.10;32.90;;;;;;10479977;28;20220;-71
2021/09/07 22:30:42;;;;;;;11.23;10.13;;;20.10;32.90;;;;;;10476104;28;20232;-72
2021/09/07 22:35:45;;;;;;;10.03;9.20;;;20.10;33.30;;;;;;10479403;28;20216;-72
2021/09/07 22:40:49;;;;;;;9.13;8.33;;;20.10;32.90;;;;;;10479115;28;20230;-71
2021/09/07 22:45:53;;;;;;;9.70;8.90;;;20.10;32.90;;;;;;10478315;28;20222;-72
2021/09/07 22:50:57;;;;;;;9.00;8.30;;;20.10;33.20;;;;;;10478975;28;20223;-71
2021/09/07 22:56:00;;;;;;;10.17;9.37;;;20.00;32.70;;;;;;10472918;28;20232;-71
2021/09/07 23:01:05;;;;;;;9.80;9.00;;;20.00;32.80;;;;;;10475140;28;20224;-72
2021/09/07 23:06:09;;;;;;;8.93;8.23;;;19.90;33.10;;;;;;10479439;28;20230;-72
2021/09/07 23:11:12;;;;;;;10.23;9.23;;;19.90;32.90;;;;;;10478265;28;20231;-72
2021/09/07 23:16:16;;;;;;;9.57;8.77;;;19.90;32.80;;;;;;10481285;28;20216;-72
2021/09/07 23:21:20;;;;;;;9.77;8.87;;;19.80;33.00;;;;;;10479362;28;20592;-72
2021/09/07 23:26:25;;;;;;;9.73;8.83;;;19.70;32.70;;;;;;10476018;28;20224;-72
2021/09/07 23:31:30;;;;;;;10.40;9.50;;;19.60;32.80;;;;;;10479655;28;20232;-72
2021/09/07 23:36:33;;;;;;;9.57;8.73;;;19.50;33.10;;;;;;10479347;28;20224;-71
2021/09/07 23:41:36;;;;;;;10.00;9.20;;;19.40;32.90;;;;;;10475536;28;20230;-72
2021/09/07 23:46:41;;;;;;;9.97;9.07;;;19.40;33.10;;;;;;10477435;28;20224;-72
2021/09/07 23:51:44;;;;;;;9.87;9.00;;;19.30;33.30;;;;;;10476891;28;20712;-72
2021/09/07 23:56:47;;;;;;;9.43;8.63;;;19.30;32.90;;;;;;10476663;28;20223;-72
